Time;durP1;ratioP1;P1;durP2;ratioP2;P2;SDS_P1;SDS_P2;PMS_P1;PMS_P2;Temp;Humidity;BMP_temperature;BMP_pressure;BME280_temperature;BME280_humidity;BME280_pressure;Samples;Min_cycle;Max_cycle;Signal;HPM_P1;HPM_P2
2024/01/16 00:01:08;;;;;;;6.47;1.50;;;;;;;-0.97;100.00;100515.09;4968265;28;22171;-78
2024/01/16 00:03:37;;;;;;;6.13;1.40;;;;;;;-0.99;100.00;100519.31;4995207;28;20053;-79
2024/01/16 00:06:06;;;;;;;5.82;1.08;;;;;;;-1.02;100.00;100521.75;4995491;28;20046;-78
2024/01/16 00:08:34;;;;;;;7.15;1.17;;;;;;;-1.03;100.00;100530.34;5004726;28;20054;-79
2024/01/16 00:11:03;;;;;;;5.63;1.30;;;;;;;-1.04;100.00;100534.63;5012387;28;20643;-78
2024/01/16 00:13:32;;;;;;;4.97;1.50;;;;;;;-1.04;100.00;100533.72;5010924;28;20046;-78
2024/01/16 00:16:02;;;;;;;5.07;1.83;;;;;;;-1.04;100.00;100534.63;4993225;28;20051;-78
2024/01/16 00:18:30;;;;;;;8.18;1.80;;;;;;;-1.03;100.00;100538.97;4985081;28;20049;-79
2024/01/16 00:21:00;;;;;;;10.27;1.90;;;;;;;-1.03;100.00;100530.34;4964107;28;20042;-78
2024/01/16 00:23:27;;;;;;;7.30;1.75;;;;;;;-1.04;100.00;100528.56;4999299;28;20057;-78
2024/01/16 00:25:55;;;;;;;7.18;2.13;;;;;;;-1.03;100.00;100520.00;5003280;28;20053;-78
2024/01/16 00:28:22;;;;;;;10.45;2.00;;;;;;;-1.03;100.00;100515.69;5006967;28;20042;-78
2024/01/16 00:30:49;;;;;;;9.40;1.88;;;;;;;-1.03;100.00;100513.13;5002271;28;20045;-78
2024/01/16 00:33:17;;;;;;;7.07;1.58;;;;;;;-1.04;100.00;100503.59;4974848;28;20758;-78
2024/01/16 00:35:44;;;;;;;9.18;2.10;;;;;;;-1.03;100.00;100502.78;5003709;28;20056;-79
2024/01/16 00:38:12;;;;;;;6.53;1.95;;;;;;;-1.02;100.00;100520.06;4994295;28;20050;-78
2024/01/16 00:40:39;;;;;;;9.75;2.67;;;;;;;-1.00;100.00;100520.16;4992201;28;20042;-78
2024/01/16 00:43:07;;;;;;;10.95;2.03;;;;;;;-0.95;100.00;100515.16;5001645;28;20784;-78
2024/01/16 00:45:34;;;;;;;7.90;1.42;;;;;;;-0.92;100.00;100513.59;4983167;28;20061;-78
2024/01/16 00:48:02;;;;;;;8.52;1.50;;;;;;;-0.85;100.00;100525.09;4968731;28;20057;-78
2024/01/16 00:50:29;;;;;;;7.55;1.95;;;;;;;-0.77;100.00;100535.81;4986723;28;20050;-78
2024/01/16 00:52:57;;;;;;;8.82;2.42;;;;;;;-0.68;100.00;100551.69;4990834;28;20042;-78
2024/01/16 00:55:24;;;;;;;10.55;2.45;;;;;;;-0.62;100.00;100555.44;5005416;28;20049;-78
2024/01/16 00:57:52;;;;;;;10.73;2.58;;;;;;;-0.57;100.00;100566.00;5001823;28;20759;-78
2024/01/16 01:00:19;;;;;;;9.65;1.88;;;;;;;-0.52;100.00;100558.44;4995505;28;20042;-78
2024/01/16 01:02:46;;;;;;;8.63;1.83;;;;;;;-0.49;100.00;100572.41;4976685;28;20050;-78
2024/01/16 01:05:14;;;;;;;4.72;1.25;;;;;;;-0.44;100.00;100557.06;5004774;28;20487;-78
2024/01/16 01:07:42;;;;;;;6.00;1.65;;;;;;;-0.43;100.00;100564.03;4996208;28;20057;-79
2024/01/16 01:10:09;;;;;;;6.20;1.30;;;;;;;-0.41;100.00;100573.63;5000999;28;20053;-78
2024/01/16 01:12:36;;;;;;;6.97;1.92;;;;;;;-0.39;100.00;100573.69;4992489;28;20054;-78
2024/01/16 01:15:04;;;;;;;7.25;2.58;;;;;;;-0.38;100.00;100577.16;5001434;28;20414;-78
2024/01/16 01:17:32;;;;;;;8.93;1.70;;;;;;;-0.42;100.00;100570.94;4988250;28;20061;-79
2024/01/16 01:19:59;;;;;;;6.30;1.50;;;;;;;-0.47;100.00;100570.75;4979225;28;20049;-77
2024/01/16 01:22:27;;;;;;;5.30;1.20;;;;;;;-0.51;100.00;100561.09;5002764;28;20046;-79
2024/01/16 01:24:55;;;;;;;5.03;1.48;;;;;;;-0.56;100.00;100567.78;4981260;28;20053;-78
2024/01/16 01:27:22;;;;;;;10.77;2.35;;;;;;;-0.63;100.00;100566.59;4987318;28;20058;-78
2024/01/16 01:29:49;;;;;;;4.82;1.10;;;;;;;-0.71;100.00;100570.56;5001961;28;20057;-78
2024/01/16 01:32:17;;;;;;;9.35;1.63;;;;;;;-0.78;100.00;100563.34;4988886;28;20407;-78
2024/01/16 01:34:44;;;;;;;4.35;1.30;;;;;;;-0.82;100.00;100559.75;4962889;28;20053;-78
2024/01/16 01:37:12;;;;;;;7.38;1.42;;;;;;;-0.86;100.00;100555.25;5004750;28;20586;-78
2024/01/16 01:39:40;;;;;;;4.05;1.88;;;;;;;-0.88;100.00;100556.00;4992861;28;20042;-78
2024/01/16 01:42:07;;;;;;;7.47;1.23;;;;;;;-0.89;100.00;100556.81;4995678;28;20070;-78
2024/01/16 01:44:34;;;;;;;5.30;1.73;;;;;;;-0.90;100.00;100560.22;4984866;28;20058;-78
2024/01/16 01:47:02;;;;;;;4.85;1.42;;;;;;;-0.91;100.00;100564.50;5002438;28;20042;-78
2024/01/16 01:49:31;;;;;;;4.22;1.15;;;;;;;-0.90;100.00;100565.41;4949285;28;20050;-77
2024/01/16 01:51:58;;;;;;;5.65;1.73;;;;;;;-0.90;100.00;100566.28;4994261;28;20072;-77
2024/01/16 01:54:27;;;;;;;7.05;1.15;;;;;;;-0.88;100.00;100571.53;4993401;28;20126;-78
2024/01/16 01:56:55;;;;;;;3.85;1.30;;;;;;;-0.89;100.00;100573.25;4989973;28;20048;-78
2024/01/16 01:59:23;;;;;;;6.38;1.25;;;;;;;-0.93;100.00;100579.06;5001987;28;20663;-78
2024/01/16 02:01:52;;;;;;;6.15;1.48;;;;;;;-0.97;100.00;100572.00;4990848;28;20767;-78
2024/01/16 02:04:21;;;;;;;6.10;1.15;;;;;;;-1.04;100.00;100570.84;4951401;28;20479;-78
2024/01/16 02:06:49;;;;;;;7.30;1.33;;;;;;;-1.09;100.00;100574.91;4996908;28;20065;-79
2024/01/16 02:09:16;;;;;;;3.80;1.35;;;;;;;-1.14;100.00;100575.53;5006793;28;20050;-78
2024/01/16 02:11:44;;;;;;;4.22;1.13;;;;;;;-1.19;100.00;100572.75;4978707;28;20042;-78
2024/01/16 02:14:12;;;;;;;4.78;1.20;;;;;;;-1.23;100.00;100575.97;5004430;28;20045;-78
2024/01/16 02:16:44;;;;;;;6.10;1.08;;;;;;;-1.25;100.00;100577.59;4994740;28;20404;-78
2024/01/16 02:19:12;;;;;;;6.70;1.38;;;;;;;-1.29;100.00;100578.28;4991580;28;20046;-78
2024/01/16 02:21:49;;;;;;;3.83;1.10;;;;;;;-1.31;100.00;100580.78;4953336;28;20415;-78
2024/01/16 02:24:18;;;;;;;4.40;1.30;;;;;;;-1.31;100.00;100578.19;5006462;28;20052;-78
2024/01/16 02:26:47;;;;;;;7.75;1.33;;;;;;;-1.31;100.00;100590.25;4986883;28;20411;-79
2024/01/16 02:29:16;;;;;;;3.50;1.52;;;;;;;-1.33;100.00;100586.72;5013671;28;20046;-78
2024/01/16 02:31:43;;;;;;;3.75;1.02;;;;;;;-1.33;100.00;100595.34;5005389;28;20052;-79
2024/01/16 02:34:11;;;;;;;5.93;1.83;;;;;;;-1.34;100.00;100595.25;4996590;28;20049;-78
2024/01/16 02:36:38;;;;;;;7.43;1.10;;;;;;;-1.37;100.00;100599.47;4964716;28;20066;-78
2024/01/16 02:39:06;;;;;;;3.40;1.10;;;;;;;-1.43;100.00;100586.28;4991091;28;20042;-78
2024/01/16 02:41:33;;;;;;;2.72;1.25;;;;;;;-1.46;100.00;100587.81;4994175;28;20411;-78
2024/01/16 02:44:01;;;;;;;2.75;1.00;;;;;;;-1.48;100.00;100592.03;4997525;28;20781;-78
2024/01/16 02:46:29;;;;;;;3.92;1.10;;;;;;;-1.49;100.00;100592.84;5009174;28;20049;-78
2024/01/16 02:48:56;;;;;;;5.85;1.65;;;;;;;-1.52;100.00;100582.38;4984860;28;20042;-78
2024/01/16 02:51:24;;;;;;;5.25;1.23;;;;;;;-1.53;100.00;100593.50;5008053;28;20415;-78
2024/01/16 02:53:51;;;;;;;5.57;1.95;;;;;;;-1.55;100.00;100583.13;4967018;28;20049;-78
2024/01/16 02:56:18;;;;;;;3.80;1.00;;;;;;;-1.53;100.00;100580.59;5007096;28;20054;-78
2024/01/16 02:58:46;;;;;;;8.90;1.35;;;;;;;-1.54;100.00;100591.75;4974641;28;20049;-79
2024/01/16 03:01:14;;;;;;;2.58;1.13;;;;;;;-1.54;100.00;100587.47;5006264;28;20054;-78
2024/01/16 03:03:42;;;;;;;6.53;1.40;;;;;;;-1.54;100.00;100589.16;4996354;28;20061;-79
2024/01/16 03:06:09;;;;;;;5.78;1.40;;;;;;;-1.52;100.00;100584.97;5004177;28;20503;-78
2024/01/16 03:08:37;;;;;;;4.50;1.02;;;;;;;-1.51;100.00;100590.22;4969289;28;20375;-78
2024/01/16 03:11:04;;;;;;;10.65;1.50;;;;;;;-1.48;100.00;100586.88;4988458;28;20056;-78
2024/01/16 03:13:32;;;;;;;5.32;1.67;;;;;;;-1.45;100.00;100592.19;4979122;28;20050;-78
2024/01/16 03:16:00;;;;;;;5.38;1.60;;;;;;;-1.41;100.00;100592.41;5005086;28;20057;-77
2024/01/16 03:18:27;;;;;;;5.80;1.23;;;;;;;-1.35;100.00;100589.22;4995244;28;20407;-78
2024/01/16 03:20:55;;;;;;;4.13;1.20;;;;;;;-1.30;100.00;100594.63;4987709;28;20057;-78
2024/01/16 03:23:22;;;;;;;9.30;1.38;;;;;;;-1.26;100.00;100587.06;4964918;28;20052;-78
2024/01/16 03:25:49;;;;;;;12.80;1.95;;;;;;;-1.21;100.00;100585.59;5019538;28;20050;-78
2024/01/16 03:28:17;;;;;;;11.55;1.83;;;;;;;-1.19;100.00;100578.78;4991271;28;20058;-78
2024/01/16 03:30:44;;;;;;;8.88;1.98;;;;;;;-1.15;100.00;100579.81;4991617;28;20069;-77
2024/01/16 03:33:12;;;;;;;7.40;1.63;;;;;;;-1.13;100.00;100582.47;4999243;28;20046;-79
2024/01/16 03:35:39;;;;;;;5.68;1.52;;;;;;;-1.13;100.00;100573.00;4990887;28;20058;-77
2024/01/16 03:38:07;;;;;;;6.40;1.25;;;;;;;-1.12;100.00;100581.66;4965215;28;20046;-78
2024/01/16 03:40:34;;;;;;;7.28;1.58;;;;;;;-1.12;100.00;100579.06;5001724;28;20053;-77
2024/01/16 03:43:01;;;;;;;7.70;1.70;;;;;;;-1.15;100.00;100568.56;4975417;28;20121;-78
2024/01/16 03:45:29;;;;;;;5.28;1.20;;;;;;;-1.18;100.00;100565.03;5017574;28;20046;-77
2024/01/16 03:47:57;;;;;;;8.75;1.40;;;;;;;-1.20;100.00;100577.00;4999423;28;20499;-79
2024/01/16 03:50:25;;;;;;;6.13;1.13;;;;;;;-1.24;100.00;100569.03;4992526;28;20045;-76
2024/01/16 03:52:52;;;;;;;6.35;1.38;;;;;;;-1.28;100.00;100578.34;4996712;28;20037;-77
2024/01/16 03:55:20;;;;;;;9.38;1.35;;;;;;;-1.30;100.00;100581.69;4957727;28;20060;-79
2024/01/16 03:57:48;;;;;;;12.52;3.00;;;;;;;-1.31;100.00;100574.75;5005082;28;20053;-78
2024/01/16 04:00:16;;;;;;;8.27;1.38;;;;;;;-1.34;100.00;100583.25;4988197;28;20138;-79
2024/01/16 04:02:43;;;;;;;7.65;1.80;;;;;;;-1.37;100.00;100585.69;5007082;28;20498;-79
2024/01/16 04:05:11;;;;;;;2.80;1.23;;;;;;;-1.40;100.00;100580.34;4991977;28;20058;-79
2024/01/16 04:07:38;;;;;;;9.02;1.42;;;;;;;-1.41;100.00;100586.34;4986803;28;20046;-79
2024/01/16 04:10:06;;;;;;;10.82;2.08;;;;;;;-1.45;100.00;100585.31;4958676;28;20051;-79
2024/01/16 04:12:34;;;;;;;3.45;1.50;;;;;;;-1.47;100.00;100574.03;5012740;28;20057;-79
2024/01/16 04:15:01;;;;;;;12.02;1.63;;;;;;;-1.44;100.00;100555.19;4995893;28;20050;-79
2024/01/16 04:17:29;;;;;;;8.20;2.30;;;;;;;-1.43;100.00;100557.84;5006541;28;20053;-79
2024/01/16 04:19:56;;;;;;;7.03;1.42;;;;;;;-1.41;100.00;100550.16;4994401;28;20149;-78
2024/01/16 04:22:23;;;;;;;6.55;1.50;;;;;;;-1.39;100.00;100558.88;4995356;28;20407;-78
2024/01/16 04:24:51;;;;;;;8.00;1.77;;;;;;;-1.39;100.00;100554.59;4999737;28;20049;-78
2024/01/16 04:27:18;;;;;;;15.30;2.30;;;;;;;-1.37;100.00;100552.06;4973980;28;20049;-78
2024/01/16 04:29:45;;;;;;;7.82;1.85;;;;;;;-1.39;100.00;100545.94;4996113;28;20069;-78
2024/01/16 04:32:13;;;;;;;16.40;1.85;;;;;;;-1.37;100.00;100554.66;5001931;28;20054;-78
2024/01/16 04:34:40;;;;;;;11.85;2.15;;;;;;;-1.37;100.00;100557.25;5000095;28;20054;-78
2024/01/16 04:37:08;;;;;;;7.05;1.40;;;;;;;-1.37;100.00;100557.25;4993269;28;20053;-78
2024/01/16 04:39:35;;;;;;;9.27;1.50;;;;;;;-1.37;100.00;100555.53;4997817;28;20057;-78
2024/01/16 04:42:03;;;;;;;7.47;1.70;;;;;;;-1.36;100.00;100564.19;4966590;28;20046;-78
2024/01/16 04:44:30;;;;;;;9.85;1.65;;;;;;;-1.37;100.00;100557.25;4995874;28;20046;-78
2024/01/16 04:46:57;;;;;;;12.00;1.88;;;;;;;-1.37;100.00;100568.47;4987570;28;20140;-78
2024/01/16 04:49:25;;;;;;;8.35;1.58;;;;;;;-1.35;100.00;100560.78;5000645;28;20046;-78
2024/01/16 04:51:52;;;;;;;9.82;1.55;;;;;;;-1.33;100.00;100569.50;5001940;28;20042;-79
2024/01/16 04:54:20;;;;;;;10.75;2.03;;;;;;;-1.28;100.00;100569.72;4991124;28;20042;-78
2024/01/16 04:56:47;;;;;;;11.57;2.10;;;;;;;-1.26;100.00;100568.97;4976364;28;20484;-78
2024/01/16 04:59:14;;;;;;;9.57;1.85;;;;;;;-1.24;100.00;100567.34;5002741;28;20045;-78
2024/01/16 05:01:43;;;;;;;8.02;1.23;;;;;;;-1.22;100.00;100568.28;4984541;28;20057;-79
2024/01/16 05:04:10;;;;;;;13.40;1.73;;;;;;;-1.19;100.00;100575.31;4998828;28;20051;-78
2024/01/16 05:06:38;;;;;;;6.38;1.60;;;;;;;-1.20;100.00;100558.91;4994599;28;20046;-78
2024/01/16 05:09:09;;;;;;;10.13;1.35;;;;;;;-1.16;100.00;100567.69;4983477;28;20056;-78
2024/01/16 05:11:36;;;;;;;7.80;2.15;;;;;;;-1.13;100.00;100559.19;5004294;28;20054;-78
2024/01/16 05:14:03;;;;;;;8.77;1.55;;;;;;;-1.11;100.00;100560.16;4960159;28;20503;-78
2024/01/16 05:16:31;;;;;;;9.68;1.70;;;;;;;-1.08;100.00;100568.03;4987483;28;20049;-78
2024/01/16 05:18:58;;;;;;;8.18;1.80;;;;;;;-1.06;100.00;100559.56;4996790;28;20061;-78
2024/01/16 05:21:25;;;;;;;8.98;1.80;;;;;;;-1.02;100.00;100570.88;4979291;28;20046;-78
2024/01/16 05:23:53;;;;;;;5.57;1.58;;;;;;;-1.01;100.00;100557.16;4985088;28;20046;-78
2024/01/16 05:26:22;;;;;;;12.75;2.55;;;;;;;-1.01;100.00;100564.91;4987537;28;20046;-78
2024/01/16 05:28:49;;;;;;;8.77;1.77;;;;;;;-0.99;100.00;100564.16;4964198;28;20049;-78
2024/01/16 05:31:17;;;;;;;7.07;1.90;;;;;;;-0.98;100.00;100560.78;4999760;28;20052;-78
2024/01/16 05:33:44;;;;;;;8.57;1.63;;;;;;;-0.97;100.00;100548.72;4988916;28;20522;-78
2024/01/16 05:36:12;;;;;;;5.35;1.42;;;;;;;-0.96;100.00;100553.09;4977806;28;20053;-78
2024/01/16 05:38:39;;;;;;;8.68;2.03;;;;;;;-0.95;100.00;100567.78;4960398;28;20046;-79
2024/01/16 05:41:07;;;;;;;12.02;2.28;;;;;;;-0.95;100.00;100567.78;4984944;28;20080;-80
2024/01/16 05:43:34;;;;;;;10.82;2.38;;;;;;;-0.91;100.00;100584.31;4970350;28;20045;-79
2024/01/16 05:46:02;;;;;;;9.48;1.48;;;;;;;-0.87;100.00;100581.97;5001081;28;20045;-79
2024/01/16 05:48:29;;;;;;;6.30;1.65;;;;;;;-0.86;100.00;100580.25;4987297;28;21275;-78
2024/01/16 05:50:57;;;;;;;12.38;2.22;;;;;;;-0.84;100.00;100568.25;4990541;28;20056;-79
2024/01/16 05:53:24;;;;;;;4.45;1.48;;;;;;;-0.83;100.00;100568.34;4993242;28;20046;-78
2024/01/16 05:55:53;;;;;;;7.60;1.55;;;;;;;-0.81;100.00;100563.22;4994497;28;20062;-78
2024/01/16 05:58:21;;;;;;;9.43;1.83;;;;;;;-0.79;100.00;100562.47;4957850;28;20248;-78
2024/01/16 06:00:48;;;;;;;7.55;1.13;;;;;;;-0.76;100.00;100563.44;5001014;28;20069;-79
2024/01/16 06:03:15;;;;;;;9.45;1.75;;;;;;;-0.76;100.00;100553.94;4992153;28;20045;-79
2024/01/16 06:05:43;;;;;;;10.55;1.88;;;;;;;-0.76;100.00;100564.28;4993551;28;20050;-78
2024/01/16 06:08:11;;;;;;;8.18;1.38;;;;;;;-0.77;100.00;100567.72;4985661;28;20050;-80
2024/01/16 06:10:38;;;;;;;11.57;1.67;;;;;;;-0.77;100.00;100556.50;4983957;28;20109;-78
2024/01/16 06:13:06;;;;;;;7.75;1.65;;;;;;;-0.77;100.00;100561.66;4980152;28;20080;-80
2024/01/16 06:15:36;;;;;;;5.72;1.88;;;;;;;-0.78;100.00;100558.19;4977844;28;20522;-78
2024/01/16 06:18:03;;;;;;;8.57;1.45;;;;;;;-0.80;100.00;100552.06;4995751;28;20429;-79
2024/01/16 06:20:32;;;;;;;8.32;1.55;;;;;;;-0.81;100.00;100564.13;4992286;28;20050;-77
2024/01/16 06:23:00;;;;;;;9.13;1.50;;;;;;;-0.80;100.00;100563.28;5019120;28;20042;-80
2024/01/16 06:25:27;;;;;;;4.78;1.73;;;;;;;-0.79;100.00;100574.53;4984322;28;20057;-79
2024/01/16 06:27:55;;;;;;;7.40;2.13;;;;;;;-0.77;100.00;100572.03;5003636;28;20483;-79
2024/01/16 06:30:25;;;;;;;5.47;1.80;;;;;;;-0.76;100.00;100574.66;4965209;28;20045;-80
2024/01/16 06:32:52;;;;;;;14.48;2.58;;;;;;;-0.75;100.00;100572.97;5007197;28;20050;-77
2024/01/16 06:35:20;;;;;;;12.73;1.80;;;;;;;-0.72;100.00;100570.50;4991671;28;20058;-78
2024/01/16 06:37:48;;;;;;;9.15;1.52;;;;;;;-0.69;100.00;100571.53;5001275;28;20080;-77
2024/01/16 06:40:15;;;;;;;12.02;1.90;;;;;;;-0.66;100.00;100581.09;4990986;28;20045;-78
2024/01/16 06:42:43;;;;;;;8.82;2.00;;;;;;;-0.63;100.00;100591.63;4995535;28;20045;-78
2024/01/16 06:45:12;;;;;;;7.45;1.80;;;;;;;-0.61;100.00;100590.84;4966115;28;20054;-78
2024/01/16 06:47:41;;;;;;;8.80;1.55;;;;;;;-0.57;100.00;100591.88;4992990;28;20049;-78
2024/01/16 06:50:09;;;;;;;8.38;1.63;;;;;;;-0.54;100.00;100596.31;4994913;28;20054;-78
2024/01/16 06:52:36;;;;;;;8.80;1.48;;;;;;;-0.51;100.00;100586.09;4987592;28;20049;-78
2024/01/16 06:55:04;;;;;;;9.05;1.90;;;;;;;-0.50;100.00;100588.75;5001723;28;20049;-77
2024/01/16 06:57:31;;;;;;;6.72;1.45;;;;;;;-0.50;100.00;100593.91;4999493;28;20054;-80
2024/01/16 06:59:59;;;;;;;10.32;2.00;;;;;;;-0.50;100.00;100583.56;4992309;28;20145;-80
2024/01/16 07:02:26;;;;;;;13.48;1.92;;;;;;;-0.50;100.00;100591.34;4985500;28;20951;-79
2024/01/16 07:04:54;;;;;;;15.15;2.08;;;;;;;-0.49;100.00;100603.47;4998011;28;20061;-79
2024/01/16 07:07:24;;;;;;;;;;;;;;;-0.49;100.00;100595.69;4987409;28;20050;-79
2024/01/16 07:09:52;;;;;;;10.70;2.15;;;;;;;-0.49;100.00;100587.03;5005575;28;19929;-79
2024/01/16 07:12:19;;;;;;;16.40;2.60;;;;;;;-0.51;100.00;100591.25;4985116;28;20053;-79
2024/01/16 07:14:47;;;;;;;11.23;1.73;;;;;;;-0.53;100.00;100583.44;4950353;28;20050;-79
2024/01/16 07:17:14;;;;;;;9.27;1.60;;;;;;;-0.56;100.00;100578.13;4991924;28;20060;-79
2024/01/16 07:19:42;;;;;;;11.27;1.88;;;;;;;-0.58;100.00;100581.47;4980276;28;20054;-79
2024/01/16 07:22:09;;;;;;;11.95;1.90;;;;;;;-0.64;100.00;100593.31;4996059;28;20518;-78
2024/01/16 07:24:37;;;;;;;11.27;2.15;;;;;;;-0.69;100.00;100591.34;5006026;28;20038;-79
2024/01/16 07:27:04;;;;;;;6.82;1.75;;;;;;;-0.74;100.00;100596.31;4997550;28;20163;-79
2024/01/16 07:29:31;;;;;;;4.38;1.67;;;;;;;-0.81;100.00;100602.03;4988508;28;20041;-79
2024/01/16 07:32:00;;;;;;;13.93;2.70;;;;;;;-0.82;100.00;100605.44;4985365;28;20414;-78
2024/01/16 07:34:27;;;;;;;9.73;1.60;;;;;;;-0.86;100.00;100594.06;4993172;28;20049;-78
2024/01/16 07:36:55;;;;;;;9.65;1.77;;;;;;;-0.88;100.00;100590.53;4997732;28;20053;-78
2024/01/16 07:39:22;;;;;;;10.32;1.63;;;;;;;-0.92;100.00;100596.38;4992221;28;20053;-78
2024/01/16 07:41:52;;;;;;;10.70;2.00;;;;;;;-0.98;100.00;100598.69;4986333;28;20050;-78
2024/01/16 07:44:20;;;;;;;10.90;2.15;;;;;;;-1.03;100.00;100603.63;4982447;28;20034;-79
2024/01/16 07:46:47;;;;;;;8.32;2.03;;;;;;;-1.07;100.00;100598.28;4973927;28;20046;-78
2024/01/16 07:49:16;;;;;;;14.60;2.42;;;;;;;-1.12;100.00;100602.34;5005449;28;20046;-79
2024/01/16 07:51:45;;;;;;;12.20;1.80;;;;;;;-1.18;100.00;100606.41;4991513;28;20058;-78
2024/01/16 07:54:13;;;;;;;9.38;1.85;;;;;;;-1.19;100.00;100606.34;4987869;28;20050;-78
2024/01/16 07:56:41;;;;;;;11.65;2.63;;;;;;;-1.21;100.00;100600.19;4970334;28;20050;-78
2024/01/16 07:59:08;;;;;;;14.52;2.10;;;;;;;-1.19;100.00;100599.47;4998692;28;20057;-78
2024/01/16 08:01:36;;;;;;;12.88;2.38;;;;;;;-1.18;100.00;100601.22;5000012;28;20049;-78
2024/01/16 08:04:04;;;;;;;10.68;1.75;;;;;;;-1.16;100.00;100603.88;4963827;28;20054;-78
2024/01/16 08:06:32;;;;;;;10.70;2.35;;;;;;;-1.13;100.00;100613.50;4995953;28;20396;-78
2024/01/16 08:08:59;;;;;;;4.32;1.60;;;;;;;-1.13;100.00;100613.50;5004636;28;20061;-78
2024/01/16 08:11:26;;;;;;;8.73;1.75;;;;;;;-1.11;100.00;100620.50;4994178;28;20058;-78
2024/01/16 08:13:54;;;;;;;10.00;2.42;;;;;;;-1.06;100.00;100619.03;4972782;28;20057;-78
2024/01/16 08:16:21;;;;;;;7.57;2.13;;;;;;;-1.02;100.00;100620.94;4993035;28;20085;-78
2024/01/16 08:18:49;;;;;;;10.55;1.90;;;;;;;-0.96;100.00;100622.00;4961829;28;20065;-78
2024/01/16 08:21:17;;;;;;;7.35;2.00;;;;;;;-0.89;100.00;100624.06;5001811;28;20065;-79
2024/01/16 08:23:44;;;;;;;5.93;1.90;;;;;;;-0.83;100.00;100627.84;4977347;28;20042;-78
2024/01/16 08:26:11;;;;;;;6.90;1.70;;;;;;;-0.75;100.00;100630.78;5002965;28;20050;-79
2024/01/16 08:28:39;;;;;;;4.80;1.08;;;;;;;-0.67;100.00;100626.81;4987740;28;20052;-78
2024/01/16 08:31:07;;;;;;;3.20;1.10;;;;;;;-0.61;100.00;100627.09;5000170;28;20050;-78
2024/01/16 08:33:34;;;;;;;9.13;1.20;;;;;;;-0.57;100.00;100610.00;4998360;28;20502;-78
2024/01/16 08:36:12;;;;;;;7.38;1.17;;;;;;;-0.54;100.00;100607.56;4975411;28;20057;-78
2024/01/16 08:38:40;;;;;;;1.60;0.88;;;;;;;-0.53;100.00;100609.34;4994171;28;20046;-78
2024/01/16 08:41:08;;;;;;;3.20;1.17;;;;;;;-0.54;100.00;100612.72;5004269;28;20041;-78
2024/01/16 08:43:36;;;;;;;5.78;1.23;;;;;;;-0.53;100.00;100613.59;4985135;28;20388;-79
2024/01/16 08:46:04;;;;;;;9.30;1.40;;;;;;;-0.52;100.00;100625.75;4998275;28;20038;-78
2024/01/16 08:48:31;;;;;;;8.88;1.65;;;;;;;-0.53;100.00;100623.97;4995475;28;20061;-78
2024/01/16 08:50:59;;;;;;;6.82;1.80;;;;;;;-0.53;100.00;100630.03;4983125;28;20056;-79
2024/01/16 08:53:30;;;;;;;8.52;2.33;;;;;;;-0.54;100.00;100625.66;5003242;28;20046;-79
2024/01/16 08:55:58;;;;;;;6.80;1.77;;;;;;;-0.53;100.00;100626.53;4986963;28;20046;-78
2024/01/16 08:58:26;;;;;;;8.57;2.03;;;;;;;-0.52;100.00;100625.75;5002343;28;20049;-78
2024/01/16 09:00:54;;;;;;;6.80;1.77;;;;;;;-0.52;100.00;100626.63;4976770;28;20045;-78
2024/01/16 09:03:21;;;;;;;7.70;1.90;;;;;;;-0.47;100.00;100613.91;4983410;28;20047;-78
2024/01/16 09:05:49;;;;;;;9.77;2.28;;;;;;;-0.42;100.00;100622.72;5004628;28;20062;-78
2024/01/16 09:08:16;;;;;;;11.23;2.67;;;;;;;-0.38;100.00;100622.03;4976195;28;20403;-78
2024/01/16 09:10:44;;;;;;;6.78;1.70;;;;;;;-0.36;100.00;100616.94;4978938;28;20423;-78
2024/01/16 09:13:13;;;;;;;2.47;1.30;;;;;;;-0.32;100.00;100618.81;5001909;28;20054;-78
2024/01/16 09:15:41;;;;;;;12.70;1.55;;;;;;;-0.28;100.00;100620.75;4990501;28;20037;-78
2024/01/16 09:18:08;;;;;;;11.38;1.30;;;;;;;-0.25;100.00;100621.75;4997860;28;20053;-78
2024/01/16 09:20:36;;;;;;;5.93;1.73;;;;;;;-0.23;100.00;100619.22;4997072;28;20392;-78
2024/01/16 09:23:03;;;;;;;8.13;1.58;;;;;;;-0.17;100.00;100619.53;4970044;28;20419;-78
2024/01/16 09:25:31;;;;;;;4.43;1.67;;;;;;;-0.11;100.00;100617.19;4979185;28;20061;-78
2024/01/16 09:27:58;;;;;;;5.18;2.17;;;;;;;-0.02;100.00;100629.63;5009397;28;20042;-79
2024/01/16 09:30:25;;;;;;;42.58;4.07;;;;;;;0.07;100.00;100624.81;4987978;28;20049;-79
2024/01/16 09:32:53;;;;;;;10.80;2.47;;;;;;;0.18;100.00;100622.69;4983842;28;20061;-79
2024/01/16 09:35:22;;;;;;;10.85;2.25;;;;;;;0.31;100.00;100627.56;4993195;28;20483;-78
2024/01/16 09:37:49;;;;;;;7.53;1.77;;;;;;;0.45;100.00;100637.59;4980731;28;20056;-78
2024/01/16 09:40:16;;;;;;;6.85;1.63;;;;;;;0.52;100.00;100637.91;5004933;28;20061;-79
2024/01/16 09:42:44;;;;;;;10.55;2.63;;;;;;;0.59;100.00;100636.47;4998792;28;20503;-78
2024/01/16 09:45:18;;;;;;;4.55;1.80;;;;;;;0.63;100.00;100622.78;4992254;28;20048;-79
2024/01/16 09:47:49;;;;;;;6.90;1.73;;;;;;;0.68;100.00;100620.38;4995374;28;20050;-78
2024/01/16 09:50:20;;;;;;;9.00;1.90;;;;;;;0.71;100.00;100618.78;4989479;28;20037;-79
2024/01/16 09:52:48;;;;;;;14.75;3.28;;;;;;;0.73;100.00;100631.81;4974772;28;20440;-78
2024/01/16 09:55:15;;;;;;;3.75;1.50;;;;;;;0.72;100.00;100636.13;5006482;28;20053;-79
2024/01/16 09:57:45;;;;;;;5.35;1.38;;;;;;;0.74;100.00;100642.25;4996504;28;20073;-78
2024/01/16 10:00:15;;;;;;;4.30;1.30;;;;;;;0.75;100.00;100640.53;5007186;28;20093;-78
2024/01/16 10:02:43;;;;;;;2.83;1.45;;;;;;;0.73;100.00;100643.06;5007240;28;20054;-78
2024/01/16 10:05:11;;;;;;;4.30;1.50;;;;;;;0.73;100.00;100642.19;4989832;28;20543;-78
2024/01/16 10:07:44;;;;;;;7.85;1.48;;;;;;;0.74;100.00;100642.25;5005132;28;20054;-78
2024/01/16 10:10:12;;;;;;;3.17;1.48;;;;;;;0.76;100.00;100638.00;4976425;28;20054;-79
2024/01/16 10:12:40;;;;;;;6.40;1.73;;;;;;;0.78;100.00;100636.34;4999677;28;20045;-78
2024/01/16 10:15:08;;;;;;;8.25;1.83;;;;;;;0.85;100.00;100640.09;5007957;28;20065;-78
2024/01/16 10:17:37;;;;;;;3.55;1.17;;;;;;;0.90;100.00;100622.97;4991024;28;20041;-78
2024/01/16 10:20:06;;;;;;;3.42;1.30;;;;;;;0.95;100.00;100617.97;4993595;28;20049;-80
2024/01/16 10:22:33;;;;;;;7.93;1.73;;;;;;;0.89;100.00;100625.50;4996078;28;20041;-79
2024/01/16 10:25:04;;;;;;;7.90;2.20;;;;;;;0.88;100.00;100615.97;4980668;28;20053;-79
2024/01/16 10:27:32;;;;;;;6.88;1.23;;;;;;;0.92;100.00;100612.66;4993052;28;20053;-78
2024/01/16 10:30:00;;;;;;;7.80;1.40;;;;;;;0.96;100.00;100614.53;5005076;28;20049;-79
2024/01/16 10:32:29;;;;;;;4.57;1.40;;;;;;;1.01;100.00;100618.19;5004966;28;20061;-79
2024/01/16 10:35:17;;;;;;;3.15;1.38;;;;;;;1.02;100.00;100616.47;4983460;28;20050;-78
2024/01/16 10:37:49;;;;;;;5.25;1.48;;;;;;;1.02;100.00;100616.47;4992256;28;20495;-78
2024/01/16 10:40:19;;;;;;;6.60;1.40;;;;;;;1.05;100.00;100620.09;4966451;28;20057;-79
2024/01/16 10:43:00;;;;;;;2.17;1.15;;;;;;;1.06;100.00;100611.50;4984859;28;20058;-78
2024/01/16 10:45:28;;;;;;;9.48;1.73;;;;;;;1.07;100.00;100623.63;5002170;28;20058;-78
2024/01/16 10:48:03;;;;;;;6.82;1.40;;;;;;;1.10;100.00;100615.09;4990498;28;20061;-78
2024/01/16 10:50:33;;;;;;;6.20;1.52;;;;;;;1.10;100.00;100617.69;4990641;28;20753;-78
2024/01/16 10:53:04;;;;;;;4.63;1.27;;;;;;;1.06;100.00;100611.50;4983350;28;20052;-78
2024/01/16 10:55:38;;;;;;;4.22;1.98;;;;;;;1.07;100.00;100613.25;4975892;28;20057;-78
2024/01/16 10:58:08;;;;;;;3.63;1.10;;;;;;;1.09;100.00;100616.78;4991893;28;20042;-79
2024/01/16 11:00:43;;;;;;;5.72;1.20;;;;;;;1.09;100.00;100619.38;4998800;28;20054;-78
2024/01/16 11:03:18;;;;;;;6.15;1.52;;;;;;;1.09;100.00;100613.31;4995939;28;20057;-79
2024/01/16 11:05:47;;;;;;;6.47;1.70;;;;;;;1.05;100.00;100609.69;4997387;28;20437;-78
2024/01/16 11:08:18;;;;;;;3.67;1.60;;;;;;;1.00;100.00;100613.81;4961704;28;20058;-78
2024/01/16 11:10:47;;;;;;;;;;;;;;;0.93;100.00;100617.91;4994741;28;20046;-79
2024/01/16 11:13:15;;;;;;;2.90;1.33;;;;;;;0.88;100.00;100619.44;4952719;28;19932;-77
2024/01/16 11:15:43;;;;;;;7.90;1.50;;;;;;;0.87;100.00;100617.69;5005481;28;20046;-78
2024/01/16 11:18:11;;;;;;;4.97;1.60;;;;;;;0.85;100.00;100611.56;5003803;28;20058;-78
2024/01/16 11:20:42;;;;;;;11.90;3.15;;;;;;;0.81;100.00;100609.63;4993304;28;20069;-78